Time;durP1;ratioP1;P1;durP2;ratioP2;P2;SDS_P1;SDS_P2;PMS_P1;PMS_P2;Temp;Humidity;BMP_temperature;BMP_pressure;BME280_temperature;BME280_humidity;BME280_pressure;Samples;Min_cycle;Max_cycle;Signal;HPM_P1;HPM_P2
2021/11/08 00:00:37;;;;;;;22.42;3.13;;;7.80;99.90;;;;;;5079658;27;20118;-72
2021/11/08 00:03:08;;;;;;;18.40;3.45;;;7.80;99.90;;;;;;5124670;27;20043;-71
2021/11/08 00:05:41;;;;;;;18.17;3.75;;;7.80;99.90;;;;;;5131404;27;20075;-71
2021/11/08 00:08:07;;;;;;;15.43;3.17;;;7.80;99.90;;;;;;5113076;27;20070;-71
2021/11/08 00:10:35;;;;;;;15.23;3.10;;;7.90;99.90;;;;;;5131585;27;20485;-71
2021/11/08 00:13:05;;;;;;;15.50;3.10;;;7.90;99.90;;;;;;5113394;27;20121;-71
2021/11/08 00:15:41;;;;;;;12.95;3.35;;;7.90;99.90;;;;;;5095127;27;20043;-73
2021/11/08 00:20:45;;;;;;;16.77;3.20;;;8.00;99.90;;;;;;5132294;27;20125;-71
2021/11/08 00:23:11;;;;;;;16.35;3.33;;;8.10;99.90;;;;;;5131815;27;20047;-71
2021/11/08 00:25:41;;;;;;;14.43;3.25;;;8.20;99.90;;;;;;5121136;27;20044;-71
2021/11/08 00:28:08;;;;;;;14.85;2.50;;;8.20;99.90;;;;;;5111476;28;20051;-71
2021/11/08 00:30:35;;;;;;;11.50;2.90;;;8.20;99.90;;;;;;5127162;27;20038;-71
2021/11/08 00:33:05;;;;;;;13.15;2.72;;;8.20;99.90;;;;;;5131564;27;20482;-71
2021/11/08 00:35:31;;;;;;;15.55;2.47;;;8.20;99.90;;;;;;5113604;27;20096;-71
2021/11/08 00:37:56;;;;;;;18.05;3.35;;;8.20;99.90;;;;;;5096841;27;20039;-71
2021/11/08 00:40:22;;;;;;;17.20;3.30;;;8.20;99.90;;;;;;5113300;27;20764;-71
2021/11/08 00:42:48;;;;;;;17.85;2.85;;;8.20;99.90;;;;;;5131926;27;20043;-71
2021/11/08 00:45:14;;;;;;;14.38;2.80;;;8.20;99.90;;;;;;5131795;27;20640;-71
2021/11/08 00:47:40;;;;;;;17.27;3.08;;;8.10;99.90;;;;;;5113869;27;20085;-71
2021/11/08 00:50:08;;;;;;;17.95;2.95;;;8.10;99.90;;;;;;5131861;27;20039;-71
2021/11/08 00:52:34;;;;;;;15.48;3.25;;;8.10;99.90;;;;;;5129486;27;20104;-71
2021/11/08 00:55:01;;;;;;;12.85;2.90;;;8.10;99.90;;;;;;5132243;27;20095;-71
2021/11/08 00:57:32;;;;;;;14.13;2.22;;;8.10;99.90;;;;;;5109541;28;20067;-71
2021/11/08 00:59:59;;;;;;;17.80;2.63;;;8.10;99.90;;;;;;5104774;28;20048;-72
2021/11/08 01:02:26;;;;;;;16.45;3.05;;;8.10;99.90;;;;;;5091040;28;20351;-71
2021/11/08 01:04:53;;;;;;;20.45;3.15;;;8.00;99.90;;;;;;5091474;28;20108;-72
2021/11/08 01:07:22;;;;;;;16.13;3.08;;;8.10;99.90;;;;;;5090345;28;20056;-71
2021/11/08 01:09:48;;;;;;;12.05;2.40;;;8.10;99.90;;;;;;5106708;28;20098;-72
2021/11/08 01:12:15;;;;;;;15.15;2.70;;;8.10;99.90;;;;;;5084029;28;20090;-71
2021/11/08 01:14:41;;;;;;;14.40;2.85;;;8.00;99.90;;;;;;5110607;28;20044;-73
2021/11/08 01:17:10;;;;;;;14.55;3.30;;;8.00;99.90;;;;;;5108316;28;20490;-71
2021/11/08 01:19:36;;;;;;;13.50;2.60;;;8.00;99.90;;;;;;5088358;28;20052;-71
2021/11/08 01:22:18;;;;;;;15.65;2.72;;;8.00;99.90;;;;;;5100429;28;20046;-71
2021/11/08 01:24:54;;;;;;;15.43;2.65;;;8.00;99.90;;;;;;5111066;28;20525;-71
2021/11/08 01:27:40;;;;;;;16.35;2.47;;;7.90;99.90;;;;;;5110637;28;20051;-71
2021/11/08 01:30:20;;;;;;;15.35;2.58;;;7.90;99.90;;;;;;5103363;28;20028;-71
2021/11/08 01:33:00;;;;;;;11.90;2.67;;;7.90;99.90;;;;;;5090695;28;20051;-73
2021/11/08 01:35:38;;;;;;;14.30;2.50;;;7.80;99.90;;;;;;5089996;28;20275;-72
2021/11/08 01:38:09;;;;;;;15.02;2.80;;;7.70;99.90;;;;;;5088751;28;20501;-74
2021/11/08 01:40:37;;;;;;;12.85;2.28;;;7.60;99.90;;;;;;5089998;28;20044;-71
2021/11/08 01:43:05;;;;;;;18.13;2.60;;;7.60;99.90;;;;;;5105773;28;20043;-71
2021/11/08 01:45:31;;;;;;;15.43;2.30;;;7.60;99.90;;;;;;5089543;28;20151;-71
2021/11/08 01:47:57;;;;;;;13.38;2.45;;;7.50;99.90;;;;;;5101043;28;20126;-72
2021/11/08 01:50:24;;;;;;;13.13;2.30;;;7.40;99.90;;;;;;5103834;28;20036;-71
2021/11/08 01:52:51;;;;;;;13.63;2.15;;;7.40;99.90;;;;;;5108776;28;20047;-71
2021/11/08 01:55:17;;;;;;;15.73;3.10;;;7.30;99.90;;;;;;5108299;28;20486;-71
2021/11/08 01:57:44;;;;;;;15.57;2.20;;;7.30;99.90;;;;;;5116069;27;20079;-71
2021/11/08 02:00:15;;;;;;;15.40;2.75;;;7.20;99.90;;;;;;5123054;27;20107;-71
2021/11/08 02:02:41;;;;;;;13.18;2.28;;;7.20;99.90;;;;;;5109955;28;20086;-73
2021/11/08 02:05:07;;;;;;;15.60;2.60;;;7.10;99.90;;;;;;5111671;27;20043;-73
2021/11/08 02:07:33;;;;;;;16.65;3.10;;;7.00;99.90;;;;;;5130061;27;20132;-71
2021/11/08 02:10:08;;;;;;;11.45;1.98;;;7.00;99.90;;;;;;5112162;27;20081;-71
2021/11/08 02:12:35;;;;;;;18.30;2.60;;;6.90;99.90;;;;;;5130060;27;20055;-71
2021/11/08 02:15:03;;;;;;;9.25;1.80;;;6.90;99.90;;;;;;5129959;27;20035;-71
2021/11/08 02:17:33;;;;;;;17.58;3.10;;;6.80;99.90;;;;;;5123799;27;20122;-71
2021/11/08 02:20:16;;;;;;;17.20;2.47;;;6.80;99.90;;;;;;5125326;27;20035;-71
2021/11/08 02:22:43;;;;;;;14.68;2.50;;;6.80;99.90;;;;;;5092448;27;20405;-71
2021/11/08 02:25:10;;;;;;;15.88;3.13;;;6.70;99.90;;;;;;5129856;27;20051;-71
2021/11/08 02:27:41;;;;;;;13.38;2.10;;;6.70;99.90;;;;;;5110920;27;20051;-71
2021/11/08 02:30:10;;;;;;;12.75;2.22;;;6.60;99.90;;;;;;5123017;27;20138;-71
2021/11/08 02:32:37;;;;;;;17.88;2.35;;;6.60;99.90;;;;;;5109074;28;20378;-71
2021/11/08 02:35:05;;;;;;;11.82;2.75;;;6.50;99.90;;;;;;5093826;27;20118;-71
2021/11/08 02:37:32;;;;;;;7.90;2.00;;;6.50;99.90;;;;;;5129370;27;20039;-71
2021/11/08 02:40:00;;;;;;;15.25;2.38;;;6.40;99.90;;;;;;5130296;27;20094;-71
2021/11/08 02:42:26;;;;;;;13.52;2.33;;;6.30;99.90;;;;;;5104413;27;20055;-74
2021/11/08 02:44:52;;;;;;;12.23;2.45;;;6.30;99.90;;;;;;5129593;27;20043;-71
2021/11/08 02:47:18;;;;;;;12.30;2.67;;;6.20;99.90;;;;;;5129496;27;20156;-71
2021/11/08 02:49:45;;;;;;;10.02;2.25;;;6.20;99.90;;;;;;5130124;27;20043;-71
2021/11/08 02:52:16;;;;;;;10.93;2.15;;;6.20;99.90;;;;;;5127938;27;20119;-71
2021/11/08 02:54:45;;;;;;;12.38;2.05;;;6.10;99.90;;;;;;5109062;28;20155;-71
2021/11/08 02:57:11;;;;;;;14.10;2.40;;;6.10;99.90;;;;;;5108830;28;20079;-71
2021/11/08 02:59:38;;;;;;;14.88;2.40;;;6.10;99.90;;;;;;5110312;27;20058;-71
2021/11/08 03:02:07;;;;;;;15.50;2.95;;;6.10;99.90;;;;;;5128212;27;20047;-73
2021/11/08 03:04:39;;;;;;;14.88;2.70;;;6.10;99.90;;;;;;5128865;27;20043;-73
2021/11/08 03:07:05;;;;;;;16.52;2.60;;;6.20;99.90;;;;;;5078123;27;20080;-72
2021/11/08 03:09:35;;;;;;;21.92;3.63;;;6.30;99.90;;;;;;5129652;27;20047;-72
2021/11/08 03:12:09;;;;;;;18.47;3.23;;;6.30;99.90;;;;;;5111770;28;20122;-72
2021/11/08 03:14:40;;;;;;;17.53;3.00;;;6.40;99.90;;;;;;5129465;28;20480;-73
2021/11/08 03:17:06;;;;;;;15.32;3.10;;;6.40;99.90;;;;;;5111351;28;20130;-73
2021/11/08 03:19:35;;;;;;;18.85;2.85;;;6.50;99.90;;;;;;5129557;28;20138;-72
2021/11/08 03:22:10;;;;;;;15.70;2.63;;;6.40;99.90;;;;;;5129784;28;20047;-72
2021/11/08 03:27:18;;;;;;;18.50;3.13;;;6.50;99.90;;;;;;5119690;28;20065;-72
2021/11/08 03:29:44;;;;;;;17.30;2.92;;;6.50;99.90;;;;;;5126569;27;20110;-71
2021/11/08 03:32:11;;;;;;;19.52;2.72;;;6.40;99.90;;;;;;5112977;28;20059;-72
2021/11/08 03:34:39;;;;;;;12.65;2.40;;;6.50;99.90;;;;;;5094181;28;20055;-73
2021/11/08 03:37:05;;;;;;;17.13;2.85;;;6.40;99.90;;;;;;5113135;28;20047;-73
2021/11/08 03:39:31;;;;;;;10.00;2.30;;;6.40;99.90;;;;;;5112396;28;20042;-72
2021/11/08 03:41:57;;;;;;;13.65;2.60;;;6.30;99.90;;;;;;5111440;28;20050;-71
2021/11/08 03:44:23;;;;;;;16.58;2.95;;;6.20;99.90;;;;;;5112508;28;20044;-71
2021/11/08 03:46:49;;;;;;;18.60;3.03;;;6.20;99.90;;;;;;5094106;28;20272;-72
2021/11/08 03:49:15;;;;;;;15.02;3.10;;;6.20;99.90;;;;;;5094371;28;20170;-71
2021/11/08 03:51:40;;;;;;;18.10;3.70;;;6.20;99.90;;;;;;5104350;27;20043;-72
2021/11/08 03:54:08;;;;;;;20.85;3.17;;;6.10;99.90;;;;;;5129063;27;20046;-72
2021/11/08 03:56:34;;;;;;;15.33;3.00;;;6.10;99.90;;;;;;5110168;27;20053;-72
2021/11/08 03:59:01;;;;;;;13.63;2.70;;;6.00;99.90;;;;;;5111202;27;20102;-72
2021/11/08 04:01:35;;;;;;;13.13;2.70;;;6.00;99.90;;;;;;5128877;27;20046;-72
2021/11/08 04:04:03;;;;;;;12.65;2.55;;;5.90;99.90;;;;;;5112229;27;20133;-72
2021/11/08 04:06:31;;;;;;;16.37;2.83;;;5.90;99.90;;;;;;5130721;27;20051;-72
2021/11/08 04:09:02;;;;;;;23.95;4.25;;;5.90;99.90;;;;;;5131351;27;21263;-71
2021/11/08 04:11:29;;;;;;;19.13;3.40;;;5.90;99.90;;;;;;5131316;27;20043;-72
2021/11/08 04:14:02;;;;;;;14.70;2.80;;;5.90;99.90;;;;;;5131414;27;20144;-72
2021/11/08 04:16:33;;;;;;;13.13;2.50;;;5.90;99.90;;;;;;5130670;27;20051;-72
2021/11/08 04:19:01;;;;;;;10.97;2.40;;;5.90;99.90;;;;;;5130626;27;20148;-72
2021/11/08 04:21:28;;;;;;;19.73;3.50;;;5.90;99.90;;;;;;5131045;27;20043;-71
2021/11/08 04:23:56;;;;;;;21.63;3.33;;;5.90;99.90;;;;;;5113734;27;20035;-71
2021/11/08 04:26:27;;;;;;;19.80;3.40;;;6.00;99.90;;;;;;5130272;27;20054;-72
2021/11/08 04:28:54;;;;;;;19.42;2.92;;;6.00;99.90;;;;;;5095476;27;20718;-71
2021/11/08 04:31:22;;;;;;;18.40;3.07;;;6.00;99.90;;;;;;5111032;27;20114;-72
2021/11/08 04:33:52;;;;;;;27.45;4.00;;;6.00;99.90;;;;;;5130665;27;20130;-72
2021/11/08 04:38:57;;;;;;;16.50;3.03;;;6.10;99.90;;;;;;5130007;27;20045;-72
2021/11/08 04:49:30;;;;;;;15.87;3.17;;;6.10;99.90;;;;;;5128696;27;20043;-71
2021/11/08 04:54:33;;;;;;;18.67;3.60;;;6.10;99.90;;;;;;5129411;27;20054;-71
2021/11/08 05:32:28;;;;;;;11.65;2.83;;;6.30;99.90;;;;;;5095203;27;20066;-73
2021/11/08 05:34:54;;;;;;;19.85;3.40;;;6.30;99.90;;;;;;5091774;28;20045;-71
2021/11/08 05:37:21;;;;;;;9.98;3.10;;;6.40;99.90;;;;;;5109971;28;20039;-71
2021/11/08 05:39:50;;;;;;;16.73;2.80;;;6.50;99.90;;;;;;5110090;28;20052;-72
2021/11/08 05:42:16;;;;;;;10.90;2.30;;;6.60;99.90;;;;;;5126398;27;20129;-73
2021/11/08 05:44:46;;;;;;;15.43;4.17;;;6.60;99.90;;;;;;5124534;27;20054;-72
2021/11/08 05:47:12;;;;;;;14.93;2.85;;;6.70;99.90;;;;;;5130847;27;20479;-71
2021/11/08 05:49:42;;;;;;;17.33;2.75;;;6.80;99.90;;;;;;5130758;27;20512;-71
2021/11/08 05:52:08;;;;;;;11.05;2.55;;;6.80;99.90;;;;;;5129519;27;20051;-71
2021/11/08 05:54:34;;;;;;;11.88;2.53;;;6.90;99.90;;;;;;5110467;28;20044;-71
2021/11/08 06:51:33;;;;;;;11.30;3.35;;;7.20;99.90;;;;;;5119013;27;20043;-71
2021/11/08 06:54:03;;;;;;;15.75;2.75;;;7.20;99.90;;;;;;5113851;27;20125;-70
2021/11/08 06:56:39;;;;;;;12.52;2.80;;;7.20;99.90;;;;;;5119068;27;20127;-70
2021/11/08 06:59:06;;;;;;;15.40;2.70;;;7.20;99.90;;;;;;5117258;27;20054;-73
2021/11/08 07:01:34;;;;;;;15.15;2.88;;;7.30;99.90;;;;;;5102030;27;20045;-71
2021/11/08 07:04:00;;;;;;;12.40;3.42;;;7.20;99.90;;;;;;5098380;27;20045;-72
2021/11/08 07:06:26;;;;;;;15.52;3.15;;;7.30;99.90;;;;;;5096800;27;20268;-71
2021/11/08 07:08:54;;;;;;;15.38;3.42;;;7.20;99.90;;;;;;5108745;27;20552;-71
2021/11/08 07:11:20;;;;;;;15.55;3.42;;;7.20;99.90;;;;;;5116997;28;20039;-71
2021/11/08 07:13:46;;;;;;;14.45;3.10;;;7.20;99.90;;;;;;5103458;28;20039;-70
2021/11/08 07:16:12;;;;;;;15.38;3.20;;;7.20;99.90;;;;;;5124015;28;20396;-71
2021/11/08 07:18:38;;;;;;;16.52;3.95;;;7.20;99.90;;;;;;5116736;27;20039;-71
2021/11/08 07:21:04;;;;;;;13.45;2.92;;;7.20;99.90;;;;;;5103415;28;20096;-71
2021/11/08 07:23:30;;;;;;;15.05;3.20;;;7.20;99.90;;;;;;5119181;28;20046;-73
2021/11/08 07:25:56;;;;;;;13.35;3.15;;;7.20;99.90;;;;;;5107638;27;20080;-72
2021/11/08 07:28:21;;;;;;;14.45;3.33;;;7.20;99.90;;;;;;5127874;28;20410;-71
2021/11/08 07:30:47;;;;;;;15.93;3.30;;;7.20;99.90;;;;;;5091578;28;20034;-71
2021/11/08 07:33:17;;;;;;;16.02;3.33;;;7.20;99.90;;;;;;5127616;28;20110;-71
2021/11/08 07:35:44;;;;;;;15.73;3.67;;;7.20;99.90;;;;;;5127585;28;20118;-71
2021/11/08 07:38:11;;;;;;;12.93;4.13;;;7.20;99.90;;;;;;5127104;28;20039;-71
2021/11/08 07:40:37;;;;;;;14.18;3.42;;;7.20;99.90;;;;;;5127626;28;20040;-71
2021/11/08 07:43:03;;;;;;;16.25;3.05;;;7.20;99.90;;;;;;5119500;28;20490;-71
2021/11/08 07:45:29;;;;;;;17.98;3.65;;;7.30;99.90;;;;;;5126116;28;20035;-71
2021/11/08 07:47:55;;;;;;;19.45;4.15;;;7.30;99.90;;;;;;5125530;28;20037;-71
2021/11/08 07:50:21;;;;;;;16.58;3.75;;;7.40;99.90;;;;;;5127344;28;20485;-70
2021/11/08 07:52:47;;;;;;;15.52;3.33;;;7.40;99.90;;;;;;5122438;28;20039;-71
2021/11/08 07:55:13;;;;;;;14.50;3.15;;;7.50;99.90;;;;;;5100979;28;20043;-71
2021/11/08 07:57:40;;;;;;;17.42;3.08;;;7.50;99.90;;;;;;5103531;28;20391;-71
2021/11/08 08:00:09;;;;;;;12.50;3.40;;;7.60;99.90;;;;;;5123327;28;20047;-70
2021/11/08 08:02:36;;;;;;;15.48;3.35;;;7.60;99.90;;;;;;5124350;28;20055;-70
2021/11/08 08:05:02;;;;;;;18.88;3.53;;;7.70;99.90;;;;;;5106890;28;21518;-71
2021/11/08 08:07:27;;;;;;;12.85;3.10;;;7.80;99.90;;;;;;5127409;28;20050;-71
2021/11/08 08:09:54;;;;;;;14.52;2.85;;;7.80;99.90;;;;;;5125023;28;20402;-71
2021/11/08 08:12:23;;;;;;;13.52;2.88;;;7.80;99.90;;;;;;5092413;28;20107;-71
2021/11/08 08:14:49;;;;;;;16.48;3.05;;;7.90;99.90;;;;;;5125405;28;20890;-72
2021/11/08 08:17:15;;;;;;;15.27;2.90;;;8.00;99.90;;;;;;5110183;27;20556;-71
2021/11/08 08:19:41;;;;;;;20.08;3.38;;;8.00;99.90;;;;;;5127459;27;20118;-71
2021/11/08 08:22:08;;;;;;;16.98;3.05;;;8.10;99.90;;;;;;5126557;27;20494;-70
2021/11/08 08:24:34;;;;;;;17.02;3.20;;;8.10;99.90;;;;;;5129141;27;20039;-70
2021/11/08 08:27:04;;;;;;;15.38;2.95;;;8.20;99.90;;;;;;5107233;27;20035;-71
2021/11/08 08:29:33;;;;;;;14.57;3.08;;;8.20;99.90;;;;;;5124891;27;20093;-70
2021/11/08 08:32:00;;;;;;;13.80;2.57;;;8.30;99.90;;;;;;5130492;27;20405;-71
2021/11/08 08:34:28;;;;;;;14.32;3.50;;;8.30;99.90;;;;;;5128694;27;20771;-71
2021/11/08 08:36:56;;;;;;;13.93;2.67;;;8.40;99.90;;;;;;5129499;27;20495;-71
2021/11/08 08:39:23;;;;;;;17.20;3.08;;;8.50;99.90;;;;;;5129775;27;20549;-71
2021/11/08 08:41:51;;;;;;;16.25;2.83;;;8.60;99.90;;;;;;5129509;27;20411;-71
2021/11/08 08:44:16;;;;;;;13.40;3.15;;;8.60;99.90;;;;;;5127935;27;20409;-71
2021/11/08 08:46:46;;;;;;;21.40;3.75;;;8.70;99.90;;;;;;5130073;27;20039;-71
2021/11/08 08:49:17;;;;;;;17.80;3.92;;;8.90;99.90;;;;;;5129047;27;20035;-71
2021/11/08 08:51:44;;;;;;;17.98;3.17;;;9.00;99.90;;;;;;5129624;27;20097;-71
2021/11/08 08:54:12;;;;;;;14.45;2.50;;;9.00;99.90;;;;;;5110187;27;20038;-70
2021/11/08 08:56:38;;;;;;;13.10;2.55;;;9.10;99.90;;;;;;5130272;27;20295;-70
2021/11/08 08:59:05;;;;;;;17.02;3.05;;;9.20;99.90;;;;;;5110058;27;20137;-71
2021/11/08 09:01:31;;;;;;;17.92;2.65;;;9.20;99.90;;;;;;5126918;27;20588;-72
2021/11/08 09:03:57;;;;;;;10.70;2.60;;;9.30;99.90;;;;;;5111905;27;20039;-72
2021/11/08 09:06:24;;;;;;;16.50;2.70;;;9.30;99.90;;;;;;5108506;27;20131;-72
2021/11/08 09:08:51;;;;;;;17.63;3.80;;;9.30;99.90;;;;;;5129989;27;20077;-71
2021/11/08 09:11:18;;;;;;;17.35;2.72;;;9.30;99.90;;;;;;5130417;27;20051;-72
2021/11/08 09:13:44;;;;;;;14.98;3.22;;;9.40;99.90;;;;;;5111350;27;20086;-71
2021/11/08 09:16:12;;;;;;;13.40;2.70;;;9.40;99.90;;;;;;5129792;27;20095;-72
2021/11/08 09:18:44;;;;;;;14.85;2.60;;;9.40;99.90;;;;;;5128826;27;20146;-72
2021/11/08 09:21:11;;;;;;;11.63;2.10;;;9.40;99.90;;;;;;5127676;27;20512;-71
2021/11/08 09:23:38;;;;;;;15.88;2.88;;;9.50;99.90;;;;;;5121005;27;20042;-71
2021/11/08 09:26:09;;;;;;;14.65;2.10;;;9.60;99.90;;;;;;5102059;27;20051;-71
2021/11/08 09:28:34;;;;;;;16.85;2.10;;;9.60;99.90;;;;;;5104565;27;20541;-72
2021/11/08 09:31:00;;;;;;;12.68;2.55;;;9.60;99.90;;;;;;5104437;27;20047;-72
2021/11/08 09:33:26;;;;;;;12.68;2.38;;;9.70;99.90;;;;;;5121034;27;20134;-71
2021/11/08 09:35:59;;;;;;;13.07;2.22;;;9.70;99.90;;;;;;5124189;27;20035;-72
2021/11/08 09:38:24;;;;;;;11.15;1.92;;;9.70;99.90;;;;;;5098913;27;20047;-71
2021/11/08 09:40:51;;;;;;;14.32;2.60;;;9.80;99.90;;;;;;5122519;27;20043;-71
2021/11/08 09:43:22;;;;;;;8.57;1.63;;;9.80;99.90;;;;;;5120374;27;20043;-71
2021/11/08 09:45:48;;;;;;;13.15;2.22;;;9.80;99.90;;;;;;5123843;27;20039;-71
2021/11/08 09:48:15;;;;;;;16.50;2.63;;;9.80;99.90;;;;;;5125649;27;20039;-74
2021/11/08 09:50:44;;;;;;;17.35;2.35;;;9.90;99.90;;;;;;5128399;27;20035;-71
2021/11/08 09:53:11;;;;;;;14.55;2.33;;;9.90;99.90;;;;;;5126392;27;20039;-71
2021/11/08 09:55:37;;;;;;;15.82;2.60;;;9.90;99.90;;;;;;5105567;27;20141;-71
2021/11/08 09:58:05;;;;;;;12.15;2.00;;;9.90;99.90;;;;;;5099377;28;20537;-71
2021/11/08 10:00:36;;;;;;;13.48;1.90;;;9.80;99.90;;;;;;5101163;28;20067;-71
2021/11/08 10:03:12;;;;;;;13.52;2.22;;;9.80;99.90;;;;;;5096229;28;20133;-72
2021/11/08 10:05:42;;;;;;;14.20;2.35;;;9.80;99.90;;;;;;5100089;28;20397;-71
2021/11/08 10:08:14;;;;;;;15.38;2.15;;;9.80;99.90;;;;;;5097161;28;20048;-71
2021/11/08 10:10:39;;;;;;;15.65;2.30;;;9.80;99.90;;;;;;5100373;28;20127;-71
2021/11/08 10:13:18;;;;;;;17.73;2.22;;;9.80;99.90;;;;;;5099584;28;20047;-71
2021/11/08 10:15:51;;;;;;;12.27;2.17;;;9.80;99.90;;;;;;5095758;28;20156;-70
2021/11/08 10:18:19;;;;;;;15.85;2.25;;;9.80;99.90;;;;;;5100461;28;20082;-71
2021/11/08 10:20:48;;;;;;;13.98;2.42;;;9.90;99.90;;;;;;5094543;28;20228;-71
2021/11/08 10:23:18;;;;;;;15.18;2.47;;;10.00;99.90;;;;;;5100049;28;20115;-71
2021/11/08 10:25:45;;;;;;;12.98;2.10;;;10.10;99.90;;;;;;5102083;28;20051;-70
2021/11/08 10:28:23;;;;;;;12.10;1.92;;;10.20;99.90;;;;;;5106335;28;20625;-71
2021/11/08 10:30:59;;;;;;;11.50;1.80;;;10.10;99.90;;;;;;5104759;28;20035;-71
2021/11/08 10:33:31;;;;;;;17.52;2.50;;;10.10;99.90;;;;;;5102266;28;20035;-71
2021/11/08 10:36:00;;;;;;;17.00;2.20;;;10.10;99.90;;;;;;5107087;28;20044;-71
2021/11/08 10:38:34;;;;;;;10.73;1.93;;;10.10;99.90;;;;;;5106768;28;20065;-71
2021/11/08 10:41:05;;;;;;;10.82;1.83;;;10.10;99.90;;;;;;5107695;28;20116;-71
2021/11/08 10:43:46;;;;;;;14.35;2.40;;;10.10;99.90;;;;;;5107278;28;20043;-71
2021/11/08 10:46:24;;;;;;;11.73;2.45;;;10.10;99.90;;;;;;5106890;28;20043;-71
2021/11/08 10:48:53;;;;;;;15.27;2.22;;;10.20;99.90;;;;;;5104507;28;20043;-71
2021/11/08 10:51:26;;;;;;;11.23;2.13;;;10.20;99.90;;;;;;5105670;28;20557;-71
2021/11/08 10:54:11;;;;;;;10.98;2.03;;;10.20;99.90;;;;;;5105993;28;20506;-72
2021/11/08 10:56:45;;;;;;;12.00;2.22;;;10.20;99.90;;;;;;5107434;28;20505;-71
2021/11/08 10:59:19;;;;;;;10.65;2.00;;;10.20;99.90;;;;;;5092282;28;20055;-71
2021/11/08 11:01:52;;;;;;;12.88;1.80;;;10.30;99.90;;;;;;5085602;28;20490;-73
2021/11/08 11:04:27;;;;;;;16.80;2.03;;;10.20;99.90;;;;;;5079874;28;20053;-71
2021/11/08 11:06:54;;;;;;;16.70;3.00;;;10.20;99.90;;;;;;5085407;28;20042;-72
2021/11/08 11:09:24;;;;;;;14.45;2.72;;;10.20;99.90;;;;;;5086971;28;20036;-72
2021/11/08 11:12:10;;;;;;;15.77;2.17;;;10.20;99.90;;;;;;5084539;28;20040;-72
2021/11/08 11:14:44;;;;;;;14.50;2.20;;;10.20;99.90;;;;;;5086836;28;20111;-71
2021/11/08 11:17:14;;;;;;;13.50;2.05;;;10.20;99.90;;;;;;5087433;28;20045;-70
2021/11/08 11:19:40;;;;;;;16.02;2.33;;;10.20;99.90;;;;;;5086256;28;20044;-70
2021/11/08 11:22:09;;;;;;;15.13;1.95;;;10.20;99.90;;;;;;5081231;28;20132;-70
2021/11/08 11:24:50;;;;;;;14.25;2.78;;;10.30;99.90;;;;;;5092804;28;20040;-70
2021/11/08 11:27:25;;;;;;;16.05;2.38;;;10.30;99.90;;;;;;5084210;28;20044;-70
2021/11/08 11:29:52;;;;;;;8.75;1.83;;;10.30;99.90;;;;;;5080702;28;20123;-70
2021/11/08 11:32:27;;;;;;;12.55;2.10;;;10.30;99.90;;;;;;5084880;28;20035;-70
2021/11/08 11:34:56;;;;;;;11.70;1.80;;;10.40;99.90;;;;;;5090983;28;20027;-72
2021/11/08 11:37:24;;;;;;;12.90;2.33;;;10.50;99.90;;;;;;5096295;28;20036;-71
2021/11/08 11:40:07;;;;;;;13.98;2.00;;;10.60;99.90;;;;;;5067422;28;20407;-72
2021/11/08 11:42:43;;;;;;;8.40;1.58;;;10.60;99.90;;;;;;5059392;28;20055;-72
2021/11/08 11:45:09;;;;;;;9.82;1.67;;;10.70;99.90;;;;;;5065455;28;20350;-72
2021/11/08 11:47:35;;;;;;;10.70;1.80;;;10.70;99.90;;;;;;5050838;28;20446;-72
2021/11/08 11:50:01;;;;;;;11.52;1.70;;;10.80;99.90;;;;;;5068059;28;20045;-72
2021/11/08 11:52:29;;;;;;;8.52;1.77;;;10.80;99.90;;;;;;5067544;28;20060;-72
2021/11/08 11:54:55;;;;;;;8.13;1.45;;;10.90;99.90;;;;;;5067279;28;20351;-72
2021/11/08 11:57:21;;;;;;;8.65;1.30;;;10.90;99.90;;;;;;5075917;27;20491;-72
2021/11/08 11:59:47;;;;;;;6.43;1.20;;;10.90;99.90;;;;;;5113883;27;20457;-72
2021/11/08 12:02:18;;;;;;;8.95;1.45;;;11.00;99.90;;;;;;5115249;27;20093;-71
2021/11/08 12:04:44;;;;;;;7.65;1.55;;;11.00;99.90;;;;;;5113475;27;20089;-72
2021/11/08 12:07:13;;;;;;;9.18;1.98;;;10.90;99.90;;;;;;5111342;27;20048;-71
2021/11/08 12:09:39;;;;;;;10.48;1.55;;;10.90;99.90;;;;;;5118361;27;20044;-72
2021/11/08 12:12:05;;;;;;;10.10;1.52;;;10.80;99.90;;;;;;5125556;27;20728;-72
2021/11/08 12:14:34;;;;;;;8.05;1.60;;;10.80;99.90;;;;;;5118689;27;20406;-71
2021/11/08 12:17:14;;;;;;;12.88;1.88;;;10.70;99.90;;;;;;5101627;27;20087;-73
2021/11/08 12:19:42;;;;;;;12.73;2.03;;;10.60;99.90;;;;;;5092482;28;20055;-71
2021/11/08 12:22:20;;;;;;;10.38;1.60;;;10.60;99.90;;;;;;5134877;27;20048;-71
2021/11/08 12:24:57;;;;;;;13.80;1.92;;;10.60;99.90;;;;;;5116357;27;20399;-71
2021/11/08 12:27:53;;;;;;;17.58;1.98;;;10.50;99.90;;;;;;5112423;27;20035;-71
2021/11/08 12:30:30;;;;;;;9.40;1.60;;;10.50;99.90;;;;;;5087034;28;20048;-74
2021/11/08 12:33:26;;;;;;;11.40;1.70;;;10.40;99.90;;;;;;5112185;28;20104;-71
2021/11/08 12:35:54;;;;;;;10.98;1.38;;;10.40;99.90;;;;;;5098492;27;20051;-72
2021/11/08 12:38:28;;;;;;;13.82;1.95;;;10.30;99.90;;;;;;5121967;27;20174;-71
2021/11/08 12:41:09;;;;;;;14.20;1.83;;;10.40;99.90;;;;;;5102033;27;20039;-71
2021/11/08 12:43:36;;;;;;;14.93;1.80;;;10.30;99.90;;;;;;5125404;27;20047;-72
2021/11/08 12:46:39;;;;;;;11.45;1.67;;;10.30;99.90;;;;;;5129242;27;20041;-72
2021/11/08 12:49:33;;;;;;;12.55;1.70;;;10.40;99.90;;;;;;5130086;27;20038;-72
2021/11/08 12:52:05;;;;;;;10.63;1.40;;;10.40;99.90;;;;;;5129920;27;20180;-72
2021/11/08 12:54:43;;;;;;;8.60;1.70;;;10.50;99.90;;;;;;5122883;27;20066;-72
2021/11/08 12:57:11;;;;;;;11.65;1.75;;;10.50;99.90;;;;;;5119497;27;20055;-72
2021/11/08 12:59:44;;;;;;;9.20;1.15;;;10.60;99.90;;;;;;5121987;27;20047;-72
2021/11/08 13:02:23;;;;;;;10.63;1.20;;;10.70;99.90;;;;;;5117146;27;20067;-72
2021/11/08 13:04:51;;;;;;;9.02;1.17;;;10.70;99.90;;;;;;5124970;27;20035;-72
2021/11/08 13:07:18;;;;;;;10.10;1.15;;;10.70;99.90;;;;;;5102415;27;20078;-72
2021/11/08 13:09:50;;;;;;;8.45;1.25;;;10.70;99.90;;;;;;5124452;27;20043;-72
2021/11/08 13:12:28;;;;;;;9.52;1.38;;;10.70;99.90;;;;;;5100232;27;20043;-73
2021/11/08 13:15:08;;;;;;;5.80;0.98;;;10.70;99.90;;;;;;5106011;27;20511;-72
2021/11/08 13:18:00;;;;;;;6.28;1.00;;;10.70;99.90;;;;;;5112879;27;20071;-72
2021/11/08 13:20:41;;;;;;;8.85;0.95;;;10.70;99.90;;;;;;5115362;27;20057;-72
2021/11/08 13:23:16;;;;;;;7.38;1.02;;;10.70;99.90;;;;;;5104502;27;20901;-71
2021/11/08 13:25:51;;;;;;;6.97;1.02;;;10.70;99.90;;;;;;5114842;27;20039;-70
2021/11/08 13:28:21;;;;;;;6.53;1.02;;;10.70;99.90;;;;;;5122461;27;20493;-71
2021/11/08 13:30:53;;;;;;;6.55;0.95;;;10.70;99.90;;;;;;5118473;27;20071;-71
2021/11/08 13:33:25;;;;;;;5.55;0.75;;;10.70;99.90;;;;;;5102304;27;20609;-71
2021/11/08 13:35:51;;;;;;;6.72;0.70;;;10.60;99.90;;;;;;5121627;27;20035;-71
2021/11/08 13:38:27;;;;;;;6.95;1.42;;;10.70;99.90;;;;;;5102768;27;20906;-72
2021/11/08 13:41:05;;;;;;;5.95;0.90;;;10.70;99.90;;;;;;5103970;27;20047;-72
2021/11/08 13:43:49;;;;;;;6.47;1.15;;;10.70;99.90;;;;;;5121984;27;20032;-72
2021/11/08 13:46:22;;;;;;;7.10;0.70;;;10.70;99.90;;;;;;5109093;27;20039;-71
2021/11/08 13:48:49;;;;;;;4.30;0.93;;;10.80;99.90;;;;;;5110059;27;20493;-72
2021/11/08 13:51:21;;;;;;;7.28;1.42;;;10.80;99.90;;;;;;5128916;27;20058;-72
2021/11/08 13:53:51;;;;;;;5.32;0.82;;;10.80;99.90;;;;;;5107967;27;20035;-72
2021/11/08 13:56:18;;;;;;;4.38;0.80;;;10.80;99.90;;;;;;5128923;27;20123;-72
2021/11/08 13:59:15;;;;;;;7.05;0.65;;;10.70;99.90;;;;;;5127804;27;20062;-72
2021/11/08 14:01:43;;;;;;;4.93;0.80;;;10.70;99.90;;;;;;5127927;27;20058;-73
2021/11/08 14:04:09;;;;;;;3.38;0.68;;;10.60;99.90;;;;;;5128664;27;20039;-72
2021/11/08 14:06:39;;;;;;;4.85;0.60;;;10.60;99.90;;;;;;5128837;27;20043;-72
2021/11/08 14:09:08;;;;;;;3.40;0.50;;;10.70;99.90;;;;;;5126651;27;20035;-72
2021/11/08 14:11:36;;;;;;;4.05;0.50;;;10.60;99.90;;;;;;5127998;27;20082;-72
2021/11/08 14:14:27;;;;;;;3.58;0.68;;;10.60;99.90;;;;;;5127104;27;20356;-72
2021/11/08 14:17:07;;;;;;;4.60;0.50;;;10.60;99.90;;;;;;5127983;27;20068;-72
2021/11/08 14:19:33;;;;;;;2.83;0.55;;;10.50;99.90;;;;;;5127786;27;20069;-71
2021/11/08 14:21:59;;;;;;;1.50;0.40;;;10.50;99.90;;;;;;5109961;27;20039;-72
2021/11/08 14:24:25;;;;;;;2.05;0.30;;;10.50;99.90;;;;;;5129465;27;20035;-72
2021/11/08 14:26:56;;;;;;;3.47;0.40;;;10.40;99.90;;;;;;5127208;27;20070;-72
2021/11/08 14:29:33;;;;;;;2.42;0.30;;;10.40;99.90;;;;;;5126115;27;20027;-72
2021/11/08 14:32:06;;;;;;;4.85;0.55;;;10.40;99.90;;;;;;5126776;27;20039;-72
2021/11/08 14:34:37;;;;;;;3.97;0.60;;;10.40;99.90;;;;;;5128393;27;20070;-72
2021/11/08 14:37:19;;;;;;;12.75;1.10;;;10.40;99.90;;;;;;5127032;27;20497;-73
2021/11/08 14:39:50;;;;;;;5.13;0.50;;;10.40;99.90;;;;;;5127166;27;20081;-74
2021/11/08 14:42:19;;;;;;;3.65;0.73;;;10.40;99.90;;;;;;5128393;27;20401;-70
2021/11/08 14:44:51;;;;;;;6.57;0.70;;;10.40;99.90;;;;;;5127491;27;20081;-73
2021/11/08 14:47:32;;;;;;;6.82;0.80;;;10.40;99.90;;;;;;5128485;27;20039;-71